Time;durP1;ratioP1;P1;durP2;ratioP2;P2;SDS_P1;SDS_P2;PMS_P1;PMS_P2;Temp;Humidity;BMP_temperature;BMP_pressure;BME280_temperature;BME280_humidity;BME280_pressure;Samples;Min_cycle;Max_cycle;Signal;HPM_P1;HPM_P2
2020/12/05 00:01:02;;;;;;;12.30;7.43;;;1.70;99.90;;;;;;5031827;28;20204;-78
2020/12/05 00:03:29;;;;;;;14.40;8.67;;;1.60;99.90;;;;;;5034948;28;20569;-78
2020/12/05 00:05:55;;;;;;;12.53;8.03;;;1.60;99.90;;;;;;5030606;28;20546;-77
2020/12/05 00:08:22;;;;;;;12.20;7.47;;;1.70;99.90;;;;;;5032342;28;20220;-78
2020/12/05 00:10:50;;;;;;;10.07;6.90;;;1.70;99.90;;;;;;5029563;28;20227;-79
2020/12/05 00:13:17;;;;;;;11.07;7.73;;;1.70;99.90;;;;;;5031189;28;20191;-79
2020/12/05 00:15:44;;;;;;;11.17;7.80;;;1.70;99.90;;;;;;5029426;28;20567;-79
2020/12/05 00:18:10;;;;;;;11.20;8.07;;;1.70;99.90;;;;;;5028499;28;20207;-79
2020/12/05 00:20:37;;;;;;;11.73;7.57;;;1.60;99.90;;;;;;5030616;28;20248;-79
2020/12/05 00:23:04;;;;;;;10.93;7.70;;;1.60;99.90;;;;;;5028044;28;20208;-78
2020/12/05 00:25:30;;;;;;;13.10;7.67;;;1.60;99.90;;;;;;5031197;28;20211;-79
2020/12/05 00:27:58;;;;;;;14.27;7.73;;;1.60;99.90;;;;;;5030991;28;20679;-78
2020/12/05 00:30:28;;;;;;;10.07;7.40;;;1.70;99.90;;;;;;5031053;28;20700;-77
2020/12/05 00:32:57;;;;;;;9.07;6.90;;;1.70;99.90;;;;;;5034660;28;20203;-78
2020/12/05 00:35:23;;;;;;;10.53;7.90;;;1.70;99.90;;;;;;5031579;28;20200;-78
2020/12/05 00:37:50;;;;;;;12.57;7.17;;;1.70;99.90;;;;;;5029947;28;20219;-79
2020/12/05 00:40:16;;;;;;;12.27;7.30;;;1.60;99.90;;;;;;5029577;28;20223;-79
2020/12/05 00:42:43;;;;;;;11.30;7.17;;;1.50;99.90;;;;;;5029226;28;20211;-80
2020/12/05 00:45:10;;;;;;;14.90;7.17;;;1.50;99.90;;;;;;5032120;28;20196;-78
2020/12/05 00:47:37;;;;;;;9.73;7.47;;;1.40;99.90;;;;;;5031375;28;20215;-79
2020/12/05 00:50:04;;;;;;;11.53;7.60;;;1.50;99.90;;;;;;5032945;28;20551;-77
2020/12/05 00:52:30;;;;;;;10.67;7.13;;;1.50;99.90;;;;;;5031889;28;20203;-77
2020/12/05 00:54:57;;;;;;;12.60;8.07;;;1.50;99.90;;;;;;5031594;28;20203;-76
2020/12/05 00:57:23;;;;;;;9.93;7.07;;;1.50;99.90;;;;;;5028831;28;20199;-77
2020/12/05 00:59:50;;;;;;;10.93;8.30;;;1.50;99.90;;;;;;5029583;28;20207;-77
2020/12/05 01:02:17;;;;;;;8.40;6.97;;;1.50;99.90;;;;;;5026096;28;20206;-75
2020/12/05 01:04:44;;;;;;;11.37;6.83;;;1.50;99.90;;;;;;5033932;28;20360;-76
2020/12/05 01:07:10;;;;;;;10.03;7.30;;;1.50;99.90;;;;;;5032377;28;20234;-76
2020/12/05 01:09:37;;;;;;;11.23;7.37;;;1.40;99.90;;;;;;5033077;28;20196;-74
2020/12/05 01:12:04;;;;;;;10.13;7.00;;;1.40;99.90;;;;;;5033149;28;20220;-79
2020/12/05 01:14:30;;;;;;;10.67;7.30;;;1.40;99.90;;;;;;5031638;28;20200;-76
2020/12/05 01:16:57;;;;;;;8.87;7.20;;;1.40;99.90;;;;;;5035192;28;20207;-79
2020/12/05 01:19:24;;;;;;;9.43;7.00;;;1.50;99.90;;;;;;5036095;28;20203;-79
2020/12/05 01:21:51;;;;;;;11.63;7.00;;;1.50;99.90;;;;;;5034649;28;20203;-78
2020/12/05 01:24:17;;;;;;;8.40;6.87;;;1.60;99.90;;;;;;5035567;28;20211;-78
2020/12/05 01:26:44;;;;;;;12.60;6.70;;;1.70;99.90;;;;;;5035605;28;20211;-78
2020/12/05 01:29:11;;;;;;;10.77;6.73;;;1.60;99.90;;;;;;5033519;28;20212;-79
2020/12/05 01:31:37;;;;;;;11.53;6.73;;;1.60;99.90;;;;;;5036689;28;22768;-78
2020/12/05 01:34:04;;;;;;;9.93;6.13;;;1.60;99.90;;;;;;5037183;28;20195;-78
2020/12/05 01:36:31;;;;;;;10.13;6.10;;;1.50;99.90;;;;;;5035709;28;20196;-78
2020/12/05 01:38:58;;;;;;;11.27;6.73;;;1.60;99.90;;;;;;5036732;28;20684;-76
2020/12/05 01:41:24;;;;;;;11.73;7.20;;;1.60;99.90;;;;;;5034871;28;20211;-77
2020/12/05 01:43:51;;;;;;;10.47;6.40;;;1.60;99.90;;;;;;5038882;28;20673;-78
2020/12/05 01:46:31;;;;;;;11.47;6.77;;;1.50;99.90;;;;;;5035489;28;20196;-77
2020/12/05 01:48:59;;;;;;;10.37;6.47;;;1.60;99.90;;;;;;5030454;28;20592;-74
2020/12/05 01:51:26;;;;;;;10.33;6.53;;;1.50;99.90;;;;;;5033402;28;20235;-78
2020/12/05 01:53:55;;;;;;;9.17;6.50;;;1.50;99.90;;;;;;5033915;28;20680;-77
2020/12/05 01:56:23;;;;;;;8.53;6.50;;;1.50;99.90;;;;;;5036617;28;20208;-77
2020/12/05 01:58:50;;;;;;;11.80;6.70;;;1.60;99.90;;;;;;5036836;28;20199;-79
2020/12/05 02:01:21;;;;;;;8.47;6.00;;;1.60;99.90;;;;;;5031983;28;20205;-77
2020/12/05 02:03:50;;;;;;;12.53;6.77;;;1.70;99.90;;;;;;5039257;28;20208;-77
2020/12/05 02:06:38;;;;;;;10.30;6.50;;;1.90;99.90;;;;;;5039718;28;20211;-77
2020/12/05 02:09:14;;;;;;;10.07;6.20;;;2.00;99.90;;;;;;5039476;28;20201;-77
2020/12/05 02:11:44;;;;;;;8.43;6.17;;;2.10;99.90;;;;;;5040719;28;20225;-78
2020/12/05 02:14:14;;;;;;;10.57;7.17;;;2.30;99.90;;;;;;5041165;28;20265;-74
2020/12/05 02:16:41;;;;;;;11.27;6.83;;;2.40;99.90;;;;;;5039697;28;20617;-76
2020/12/05 02:19:12;;;;;;;11.03;6.90;;;2.40;99.90;;;;;;5042668;28;20207;-77
2020/12/05 02:21:41;;;;;;;7.93;7.03;;;2.50;99.90;;;;;;5038134;28;20201;-80
2020/12/05 02:24:10;;;;;;;7.93;6.20;;;2.60;99.90;;;;;;5039952;28;20207;-77
2020/12/05 02:26:36;;;;;;;10.83;6.60;;;2.70;99.90;;;;;;5040661;28;20199;-77
2020/12/05 02:29:03;;;;;;;12.83;7.27;;;2.70;99.90;;;;;;5040468;28;20676;-76
2020/12/05 02:31:30;;;;;;;10.30;6.10;;;2.80;99.90;;;;;;5041414;28;20238;-78
2020/12/05 02:33:57;;;;;;;11.23;6.90;;;2.90;99.90;;;;;;5041266;28;21105;-77
2020/12/05 02:36:24;;;;;;;7.63;6.57;;;2.90;99.90;;;;;;5039593;28;20199;-78
2020/12/05 02:39:00;;;;;;;10.50;6.27;;;2.90;99.90;;;;;;5040273;28;20199;-78
2020/12/05 02:41:28;;;;;;;9.00;6.40;;;3.00;99.90;;;;;;5041354;28;20196;-77
2020/12/05 02:43:55;;;;;;;10.27;5.90;;;3.10;99.90;;;;;;5040914;28;20200;-77
2020/12/05 02:46:22;;;;;;;7.23;6.03;;;3.10;99.90;;;;;;5040109;28;20215;-76
2020/12/05 02:48:49;;;;;;;7.53;5.53;;;3.20;99.90;;;;;;5040870;28;20199;-78
2020/12/05 02:51:15;;;;;;;9.67;5.90;;;3.20;99.90;;;;;;5039473;28;20228;-78
2020/12/05 02:53:42;;;;;;;7.07;5.40;;;3.30;99.90;;;;;;5039077;28;20207;-79
2020/12/05 02:56:08;;;;;;;9.53;6.13;;;3.30;99.90;;;;;;5040831;28;20196;-78
2020/12/05 02:58:36;;;;;;;9.07;5.83;;;3.30;99.90;;;;;;5040058;28;20196;-78
2020/12/05 03:01:02;;;;;;;8.27;5.40;;;3.30;99.90;;;;;;5040174;28;20207;-79
2020/12/05 03:03:29;;;;;;;9.23;5.40;;;3.40;99.90;;;;;;5038481;28;20204;-78
2020/12/05 03:05:55;;;;;;;9.77;6.07;;;3.40;99.90;;;;;;5040408;28;20214;-78
2020/12/05 03:08:22;;;;;;;7.13;4.60;;;3.40;99.90;;;;;;5038989;28;20236;-78
2020/12/05 03:10:48;;;;;;;6.33;4.70;;;3.50;99.90;;;;;;5039766;28;20227;-77
2020/12/05 03:13:15;;;;;;;6.40;4.67;;;3.50;99.90;;;;;;5040732;28;22157;-77
2020/12/05 03:15:42;;;;;;;6.37;4.90;;;3.50;99.90;;;;;;5039363;28;20200;-76
2020/12/05 03:18:09;;;;;;;5.73;4.67;;;3.50;99.90;;;;;;5040208;28;20204;-76
2020/12/05 03:20:35;;;;;;;6.00;4.37;;;3.50;99.90;;;;;;5039200;28;20560;-77
2020/12/05 03:23:02;;;;;;;5.97;4.63;;;3.60;99.90;;;;;;5040127;28;20673;-77
2020/12/05 03:25:29;;;;;;;8.77;4.80;;;3.60;99.90;;;;;;5039351;28;20218;-77
2020/12/05 03:27:55;;;;;;;7.60;4.50;;;3.60;99.90;;;;;;5040109;28;20659;-78
2020/12/05 03:30:22;;;;;;;5.60;4.63;;;3.60;99.90;;;;;;5038743;28;20553;-77
2020/12/05 03:32:50;;;;;;;6.63;4.60;;;3.70;99.90;;;;;;5039698;28;20227;-78
2020/12/05 03:35:16;;;;;;;5.73;4.70;;;3.70;99.90;;;;;;5040156;28;20261;-75
2020/12/05 03:37:43;;;;;;;5.73;4.43;;;3.70;99.90;;;;;;5040145;28;20214;-77
2020/12/05 03:40:09;;;;;;;7.17;4.53;;;3.70;99.90;;;;;;5039021;28;20200;-76
2020/12/05 03:42:38;;;;;;;5.80;4.37;;;3.70;99.90;;;;;;5039162;28;20203;-76
2020/12/05 03:45:05;;;;;;;6.03;4.87;;;3.70;99.90;;;;;;5039382;28;20231;-78
2020/12/05 03:47:31;;;;;;;5.33;4.40;;;3.70;99.90;;;;;;5040270;28;20203;-77
2020/12/05 03:49:59;;;;;;;6.77;4.30;;;3.80;99.90;;;;;;5039787;28;20206;-77
2020/12/05 03:52:25;;;;;;;7.30;4.17;;;3.80;99.90;;;;;;5039628;28;22316;-76
2020/12/05 03:54:52;;;;;;;6.60;4.03;;;3.80;99.90;;;;;;5041239;28;21502;-75
2020/12/05 03:57:18;;;;;;;7.63;4.43;;;3.90;99.90;;;;;;5038453;28;20203;-78
2020/12/05 03:59:45;;;;;;;8.07;4.63;;;3.90;99.90;;;;;;5041342;28;20207;-76
2020/12/05 04:02:11;;;;;;;5.93;4.10;;;3.90;99.90;;;;;;5036834;28;20576;-79
2020/12/05 04:04:38;;;;;;;7.50;4.40;;;3.90;99.90;;;;;;5034859;28;20219;-74
2020/12/05 04:07:05;;;;;;;4.93;4.43;;;4.00;99.90;;;;;;5036834;28;20238;-75
2020/12/05 04:09:32;;;;;;;6.00;4.50;;;4.00;99.90;;;;;;5037549;28;20199;-79
2020/12/05 04:11:58;;;;;;;5.20;4.57;;;4.00;99.90;;;;;;5037350;28;20227;-78
2020/12/05 04:14:25;;;;;;;5.77;5.17;;;3.90;99.90;;;;;;5036678;28;20199;-75
2020/12/05 04:16:52;;;;;;;7.00;4.80;;;4.00;99.90;;;;;;5035512;28;20200;-77
2020/12/05 04:19:18;;;;;;;10.70;5.30;;;4.00;99.90;;;;;;5031645;28;20242;-77
2020/12/05 04:21:45;;;;;;;7.70;5.33;;;4.00;99.90;;;;;;5028595;28;20214;-77
2020/12/05 04:24:12;;;;;;;5.30;4.80;;;3.90;99.90;;;;;;5030112;28;20210;-79
2020/12/05 04:26:39;;;;;;;7.80;4.87;;;3.90;99.90;;;;;;5032010;28;20215;-78
2020/12/05 04:29:06;;;;;;;6.57;5.20;;;3.90;99.90;;;;;;5030149;28;20203;-75
2020/12/05 04:31:32;;;;;;;7.23;4.90;;;3.80;99.90;;;;;;5030200;28;20242;-76
2020/12/05 04:33:59;;;;;;;8.70;5.00;;;3.80;99.90;;;;;;5031940;28;20206;-76
2020/12/05 04:36:25;;;;;;;7.13;5.30;;;3.90;99.90;;;;;;5028569;28;20192;-78
2020/12/05 04:38:52;;;;;;;7.27;4.67;;;3.90;99.90;;;;;;5031927;28;20208;-74
2020/12/05 04:41:20;;;;;;;8.73;4.63;;;3.90;99.90;;;;;;5029795;28;20234;-76
2020/12/05 04:43:47;;;;;;;9.27;5.33;;;3.90;99.90;;;;;;5028039;28;20219;-73
2020/12/05 04:46:16;;;;;;;6.57;5.17;;;3.90;99.90;;;;;;5028014;28;20200;-79
2020/12/05 04:48:44;;;;;;;9.10;5.03;;;3.90;99.90;;;;;;5036146;28;20211;-76
2020/12/05 04:51:16;;;;;;;6.93;5.50;;;3.90;99.90;;;;;;5029632;28;20700;-76
2020/12/05 04:53:46;;;;;;;6.57;4.83;;;3.90;99.90;;;;;;5027989;28;22069;-73
2020/12/05 04:56:15;;;;;;;6.93;5.47;;;3.90;99.90;;;;;;5029106;28;20233;-75
2020/12/05 04:58:48;;;;;;;9.03;5.13;;;3.90;99.90;;;;;;5029862;28;20715;-74
2020/12/05 05:01:17;;;;;;;6.83;5.43;;;3.90;99.90;;;;;;5028378;28;20204;-77
2020/12/05 05:03:44;;;;;;;6.47;5.13;;;3.90;99.90;;;;;;5027862;28;20290;-77
2020/12/05 05:06:19;;;;;;;7.53;5.80;;;3.90;99.90;;;;;;5029782;28;20661;-76
2020/12/05 05:08:46;;;;;;;8.77;5.80;;;3.80;99.90;;;;;;5028573;28;20295;-76
2020/12/05 05:11:15;;;;;;;8.47;5.97;;;3.80;99.90;;;;;;5026917;28;20230;-78
2020/12/05 05:13:55;;;;;;;7.17;5.60;;;3.80;99.90;;;;;;5028957;28;20208;-75
2020/12/05 05:16:24;;;;;;;10.67;6.20;;;3.80;99.90;;;;;;5028160;28;20200;-76
2020/12/05 05:18:50;;;;;;;7.63;5.80;;;3.80;99.90;;;;;;5027087;28;20956;-75
2020/12/05 05:21:36;;;;;;;6.43;5.80;;;3.80;99.90;;;;;;5027817;28;20203;-76
2020/12/05 05:24:11;;;;;;;9.07;6.43;;;3.80;99.90;;;;;;5029801;28;20199;-78
2020/12/05 05:26:38;;;;;;;7.77;5.73;;;3.80;99.90;;;;;;5028302;28;20294;-79
2020/12/05 05:29:05;;;;;;;8.50;6.47;;;3.80;99.90;;;;;;5030998;28;20200;-79
2020/12/05 05:31:49;;;;;;;8.17;6.10;;;3.80;99.90;;;;;;5028329;28;20223;-78
2020/12/05 05:34:21;;;;;;;7.37;6.40;;;3.80;99.90;;;;;;5025990;28;20211;-77
2020/12/05 05:36:47;;;;;;;8.87;6.27;;;3.80;99.90;;;;;;5026219;28;20257;-79
2020/12/05 05:39:15;;;;;;;7.37;6.23;;;3.80;99.90;;;;;;5028470;28;21207;-78
2020/12/05 05:41:47;;;;;;;10.40;6.43;;;3.80;99.90;;;;;;5027200;28;20215;-77
2020/12/05 05:44:16;;;;;;;8.53;6.40;;;3.80;99.90;;;;;;5026718;28;20200;-77
2020/12/05 05:46:44;;;;;;;7.53;6.40;;;3.70;99.90;;;;;;5029681;28;20199;-77
2020/12/05 05:49:13;;;;;;;9.67;6.50;;;3.70;99.90;;;;;;5028335;28;20214;-74
2020/12/05 05:51:45;;;;;;;9.37;6.90;;;3.70;99.90;;;;;;5029264;28;20231;-76
2020/12/05 05:54:16;;;;;;;8.60;6.70;;;3.70;99.90;;;;;;5032348;28;20207;-79
2020/12/05 05:56:57;;;;;;;8.03;6.47;;;3.70;99.90;;;;;;5031568;28;20219;-78
2020/12/05 05:59:26;;;;;;;9.50;6.97;;;3.70;99.90;;;;;;5038079;28;20206;-75
2020/12/05 06:01:55;;;;;;;10.03;7.00;;;3.80;99.90;;;;;;5034584;28;20211;-76
2020/12/05 06:04:33;;;;;;;8.70;6.70;;;3.80;99.90;;;;;;5033555;28;20207;-74
2020/12/05 06:07:00;;;;;;;9.93;6.47;;;3.80;99.90;;;;;;5032707;28;20236;-75
2020/12/05 06:09:29;;;;;;;9.50;6.67;;;3.80;99.90;;;;;;5032415;28;20203;-74
2020/12/05 06:11:58;;;;;;;9.70;7.30;;;3.70;99.90;;;;;;5032952;28;20242;-76
2020/12/05 06:14:26;;;;;;;9.53;6.90;;;3.70;99.90;;;;;;5032634;28;20565;-74
2020/12/05 06:16:55;;;;;;;6.77;6.03;;;3.70;99.90;;;;;;5034343;28;20203;-76
2020/12/05 06:19:22;;;;;;;10.10;6.00;;;3.70;99.90;;;;;;5031457;28;20949;-79
2020/12/05 06:21:53;;;;;;;8.23;7.13;;;3.60;99.90;;;;;;5032758;28;20199;-76
2020/12/05 06:24:39;;;;;;;10.07;7.27;;;3.60;99.90;;;;;;5031217;28;20196;-76
2020/12/05 06:27:08;;;;;;;8.37;6.87;;;3.60;99.90;;;;;;5032665;28;21177;-78
2020/12/05 06:29:38;;;;;;;10.30;7.10;;;3.60;99.90;;;;;;5030636;28;20196;-77
2020/12/05 06:32:05;;;;;;;10.00;7.57;;;3.50;99.90;;;;;;5033223;28;20349;-79
2020/12/05 06:34:40;;;;;;;8.80;6.90;;;3.50;99.90;;;;;;5030908;28;20952;-79
2020/12/05 06:37:09;;;;;;;10.87;7.30;;;3.50;99.90;;;;;;5030479;28;20211;-78
2020/12/05 06:39:36;;;;;;;9.67;7.73;;;3.50;99.90;;;;;;5030256;28;20399;-78
2020/12/05 06:42:03;;;;;;;8.47;7.10;;;3.40;99.90;;;;;;5029849;28;20215;-78
2020/12/05 06:44:38;;;;;;;7.90;7.10;;;3.30;99.90;;;;;;5031340;28;20204;-77
2020/12/05 06:47:06;;;;;;;10.83;7.97;;;3.30;99.90;;;;;;5031089;28;20207;-78
2020/12/05 06:49:55;;;;;;;10.13;7.57;;;3.20;99.90;;;;;;5026411;28;20787;-76
2020/12/05 06:52:41;;;;;;;11.20;8.17;;;3.20;99.90;;;;;;5033093;28;20223;-76
2020/12/05 06:55:29;;;;;;;10.17;7.50;;;3.10;99.90;;;;;;5035236;28;20925;-76
2020/12/05 06:58:04;;;;;;;10.03;7.93;;;3.10;99.90;;;;;;5028963;28;20245;-77
2020/12/05 07:00:34;;;;;;;12.90;9.13;;;3.10;99.90;;;;;;5032513;28;20633;-76
2020/12/05 07:03:03;;;;;;;11.07;8.97;;;3.20;99.90;;;;;;5030858;28;21231;-75
2020/12/05 07:05:38;;;;;;;10.37;9.07;;;3.20;99.90;;;;;;5035671;28;20199;-75
2020/12/05 07:08:31;;;;;;;11.90;8.47;;;3.30;99.90;;;;;;5033286;28;20646;-76
2020/12/05 07:11:00;;;;;;;11.13;8.40;;;3.30;99.90;;;;;;5029540;28;20904;-73
2020/12/05 07:13:36;;;;;;;12.73;8.90;;;3.30;99.90;;;;;;5031318;28;20306;-75
2020/12/05 07:16:13;;;;;;;11.63;9.37;;;3.30;99.90;;;;;;5033348;28;20696;-76
2020/12/05 07:18:41;;;;;;;12.33;8.53;;;3.30;99.90;;;;;;5031981;28;20183;-76
2020/12/05 07:21:07;;;;;;;14.20;9.13;;;3.30;99.90;;;;;;5029009;28;21200;-76
2020/12/05 07:23:34;;;;;;;11.23;8.63;;;3.30;99.90;;;;;;5035789;28;20211;-73
2020/12/05 07:26:01;;;;;;;13.27;9.60;;;3.30;99.90;;;;;;5038122;28;20202;-75
2020/12/05 07:28:28;;;;;;;12.57;9.70;;;3.30;99.90;;;;;;5038650;28;20696;-76
2020/12/05 07:30:55;;;;;;;12.40;9.57;;;3.30;99.90;;;;;;5040804;28;22316;-74
2020/12/05 07:33:23;;;;;;;10.77;9.23;;;3.30;99.90;;;;;;5039051;28;20233;-77
2020/12/05 07:36:01;;;;;;;17.30;10.10;;;3.30;99.90;;;;;;5041380;28;20572;-77
2020/12/05 07:38:29;;;;;;;11.57;9.57;;;3.30;99.90;;;;;;5042257;28;20669;-76
2020/12/05 07:40:56;;;;;;;13.40;9.60;;;3.30;99.90;;;;;;5037655;28;20657;-77
2020/12/05 07:43:23;;;;;;;11.80;9.43;;;3.30;99.90;;;;;;5039327;28;20203;-78
2020/12/05 07:45:51;;;;;;;12.10;9.23;;;3.30;99.90;;;;;;5040003;28;20203;-75
2020/12/05 07:48:20;;;;;;;12.93;9.43;;;3.20;99.90;;;;;;5037424;28;20207;-76
2020/12/05 07:50:49;;;;;;;12.37;9.50;;;3.20;99.90;;;;;;5041098;28;20299;-76
2020/12/05 07:53:33;;;;;;;10.50;9.37;;;3.10;99.90;;;;;;5038174;28;20272;-76
2020/12/05 07:56:12;;;;;;;12.23;9.50;;;3.10;99.90;;;;;;5037808;28;20679;-76
2020/12/05 07:58:44;;;;;;;11.50;8.80;;;3.00;99.90;;;;;;5040450;28;20197;-76
2020/12/05 08:01:16;;;;;;;12.40;9.33;;;3.00;99.90;;;;;;5037227;28;20199;-76
2020/12/05 08:04:01;;;;;;;11.53;9.13;;;2.90;99.90;;;;;;5031812;28;20636;-75
2020/12/05 08:06:49;;;;;;;10.57;8.53;;;2.90;99.90;;;;;;5031528;28;20206;-76
2020/12/05 08:09:22;;;;;;;12.50;9.23;;;2.90;99.90;;;;;;5033926;28;21135;-76
2020/12/05 08:11:53;;;;;;;11.17;8.97;;;3.00;99.90;;;;;;5031907;28;20227;-73
2020/12/05 08:14:20;;;;;;;14.07;9.07;;;3.10;99.90;;;;;;5030774;28;20204;-75
2020/12/05 08:16:48;;;;;;;10.37;8.80;;;3.10;99.90;;;;;;5026265;28;20204;-76
2020/12/05 08:19:15;;;;;;;12.63;9.17;;;3.10;99.90;;;;;;5027753;28;22750;-75
2020/12/05 08:21:42;;;;;;;11.13;8.43;;;3.10;99.90;;;;;;5029711;28;20199;-77
2020/12/05 08:24:10;;;;;;;10.23;8.57;;;3.30;99.90;;;;;;5028610;28;20214;-74
2020/12/05 08:26:38;;;;;;;13.10;8.77;;;3.40;99.90;;;;;;5031264;28;20203;-76
2020/12/05 08:29:06;;;;;;;13.27;8.53;;;3.50;99.90;;;;;;5026862;28;20206;-77
2020/12/05 08:31:40;;;;;;;10.27;7.93;;;3.50;99.90;;;;;;5033199;28;20284;-77
2020/12/05 08:34:06;;;;;;;9.80;7.73;;;3.50;99.90;;;;;;5038132;28;20223;-77
2020/12/05 08:36:35;;;;;;;11.63;8.10;;;3.60;99.90;;;;;;5039339;28;20203;-78
2020/12/05 08:39:07;;;;;;;8.83;7.90;;;3.70;99.90;;;;;;5039021;28;20208;-78
2020/12/05 08:41:46;;;;;;;8.70;7.57;;;3.90;99.90;;;;;;5038728;28;20216;-78
2020/12/05 08:44:14;;;;;;;10.33;8.70;;;4.10;99.90;;;;;;5038597;28;20250;-77
2020/12/05 08:46:41;;;;;;;8.47;7.40;;;4.30;99.90;;;;;;5039549;28;20578;-79
2020/12/05 08:49:15;;;;;;;10.87;7.80;;;4.50;99.90;;;;;;5038807;28;20188;-78
2020/12/05 08:51:46;;;;;;;10.67;7.47;;;4.60;99.90;;;;;;5039014;28;20222;-78
2020/12/05 08:54:14;;;;;;;10.73;8.50;;;4.60;99.90;;;;;;5038507;28;20203;-77
2020/12/05 08:56:41;;;;;;;10.13;7.30;;;4.80;99.90;;;;;;5038714;28;20208;-77
2020/12/05 08:59:08;;;;;;;8.30;6.83;;;5.00;99.90;;;;;;5038456;28;20210;-79
2020/12/05 09:01:36;;;;;;;8.40;6.47;;;5.20;99.90;;;;;;5039514;28;20272;-78
2020/12/05 09:04:03;;;;;;;7.20;6.07;;;5.20;99.90;;;;;;5038545;28;20207;-78
2020/12/05 09:06:30;;;;;;;9.73;6.93;;;5.20;99.90;;;;;;5033915;28;20195;-72
2020/12/05 09:08:57;;;;;;;8.10;6.30;;;5.40;99.90;;;;;;5032958;28;20215;-78
2020/12/05 09:11:25;;;;;;;8.80;6.67;;;5.60;99.90;;;;;;5043444;28;20200;-77
2020/12/05 09:13:52;;;;;;;7.30;6.00;;;5.90;99.90;;;;;;5039058;28;20206;-76
2020/12/05 09:16:19;;;;;;;7.60;5.63;;;5.90;99.90;;;;;;5039518;28;20645;-78
2020/12/05 09:18:47;;;;;;;6.90;6.03;;;5.80;99.90;;;;;;5039866;28;20203;-77
2020/12/05 09:21:16;;;;;;;7.07;6.00;;;5.60;99.90;;;;;;5040258;28;20225;-77
2020/12/05 09:23:43;;;;;;;8.03;5.43;;;5.50;99.90;;;;;;5042719;28;20207;-77
2020/12/05 09:26:10;;;;;;;7.13;6.17;;;5.30;99.90;;;;;;5040098;28;20210;-78
2020/12/05 09:28:37;;;;;;;8.97;6.40;;;5.10;99.90;;;;;;5041462;28;20585;-77
2020/12/05 09:31:06;;;;;;;7.23;6.20;;;5.00;99.90;;;;;;5055112;28;20200;-76
2020/12/05 09:33:34;;;;;;;7.07;6.10;;;4.90;99.90;;;;;;5055656;28;20227;-77
2020/12/05 09:36:01;;;;;;;6.70;6.03;;;4.90;99.90;;;;;;5043716;28;20208;-75
2020/12/05 09:38:27;;;;;;;6.17;5.57;;;5.00;99.90;;;;;;5043054;28;20206;-76
2020/12/05 09:40:54;;;;;;;6.57;5.83;;;5.10;99.90;;;;;;5045000;28;20211;-73
2020/12/05 09:43:21;;;;;;;8.60;6.37;;;5.30;99.90;;;;;;5038768;28;20215;-73
2020/12/05 09:45:48;;;;;;;7.27;6.10;;;5.40;99.90;;;;;;5035075;28;20204;-74
2020/12/05 09:48:15;;;;;;;7.40;6.10;;;5.40;99.90;;;;;;5034878;28;20210;-74
2020/12/05 09:50:42;;;;;;;7.57;6.00;;;5.50;99.90;;;;;;5038398;28;20215;-76
2020/12/05 09:53:08;;;;;;;10.60;6.70;;;5.80;99.90;;;;;;5041532;28;20235;-73
2020/12/05 09:55:35;;;;;;;6.97;6.27;;;6.10;99.90;;;;;;5040599;28;20201;-76
2020/12/05 09:58:02;;;;;;;9.63;6.67;;;6.20;99.90;;;;;;5040860;28;20207;-74
2020/12/05 10:00:29;;;;;;;9.63;7.10;;;6.20;99.90;;;;;;5039703;28;20553;-75
2020/12/05 10:02:57;;;;;;;9.47;6.60;;;6.10;99.90;;;;;;5038995;28;20227;-75
2020/12/05 10:05:23;;;;;;;8.47;6.43;;;5.90;99.90;;;;;;5039121;28;20195;-74
2020/12/05 10:07:50;;;;;;;9.20;6.60;;;5.80;99.90;;;;;;5043543;28;20234;-74
2020/12/05 10:10:17;;;;;;;11.77;6.77;;;5.70;99.90;;;;;;5041509;28;20211;-77
2020/12/05 10:12:44;;;;;;;9.77;6.40;;;5.60;99.90;;;;;;5040080;28;20232;-75
2020/12/05 10:15:13;;;;;;;9.23;7.10;;;5.50;99.90;;;;;;5041061;28;20200;-77
2020/12/05 10:17:40;;;;;;;9.07;6.77;;;5.50;99.90;;;;;;5039677;28;20242;-76
2020/12/05 10:20:08;;;;;;;9.97;6.37;;;5.50;99.90;;;;;;5038672;28;20204;-75
2020/12/05 10:22:36;;;;;;;11.83;7.70;;;5.50;99.90;;;;;;5039805;28;20208;-76
2020/12/05 10:25:03;;;;;;;14.57;6.90;;;5.50;99.90;;;;;;5041868;28;20603;-75
2020/12/05 10:27:29;;;;;;;12.87;7.23;;;5.40;99.90;;;;;;5039710;28;20226;-75
2020/12/05 10:29:56;;;;;;;9.03;7.10;;;5.40;99.90;;;;;;5038953;28;20641;-76
2020/12/05 10:32:22;;;;;;;9.43;7.70;;;5.40;99.90;;;;;;5037750;28;20230;-77
2020/12/05 10:34:49;;;;;;;9.33;7.37;;;5.40;99.90;;;;;;5046176;28;20230;-74
2020/12/05 10:37:17;;;;;;;13.33;7.23;;;5.40;99.90;;;;;;5052458;28;20204;-74
2020/12/05 10:39:43;;;;;;;8.30;6.80;;;5.40;99.90;;;;;;5054126;28;20211;-72
2020/12/05 10:42:10;;;;;;;10.00;7.60;;;5.40;99.90;;;;;;5053824;28;20200;-73
2020/12/05 10:44:36;;;;;;;8.83;7.00;;;5.40;99.90;;;;;;5042989;28;20200;-73
2020/12/05 10:47:03;;;;;;;9.83;6.47;;;5.40;99.90;;;;;;5038121;28;20203;-76
2020/12/05 10:49:30;;;;;;;7.07;5.87;;;5.40;99.90;;;;;;5038724;28;20667;-77
2020/12/05 10:51:56;;;;;;;6.90;6.10;;;5.40;99.90;;;;;;5040028;28;20235;-74
2020/12/05 10:54:24;;;;;;;8.53;6.33;;;5.40;99.90;;;;;;5045438;28;20204;-79
2020/12/05 10:56:51;;;;;;;8.83;5.97;;;5.40;99.90;;;;;;5039241;28;20719;-76
2020/12/05 10:59:18;;;;;;;9.20;6.03;;;5.40;99.90;;;;;;5039259;28;20305;-77
2020/12/05 11:01:44;;;;;;;7.40;5.67;;;5.40;99.90;;;;;;5037697;28;20641;-76
2020/12/05 11:04:11;;;;;;;9.27;6.40;;;5.40;99.90;;;;;;5039504;28;20207;-78
2020/12/05 11:06:38;;;;;;;9.70;6.83;;;5.40;99.90;;;;;;5044286;28;20204;-78
2020/12/05 11:09:04;;;;;;;12.33;5.70;;;5.40;99.90;;;;;;5040384;28;20827;-78
2020/12/05 11:11:32;;;;;;;7.07;6.00;;;5.40;99.90;;;;;;5037347;28;20216;-74
2020/12/05 11:13:58;;;;;;;6.70;5.70;;;5.40;99.90;;;;;;5039221;28;20200;-76
2020/12/05 11:16:25;;;;;;;11.07;6.17;;;5.40;99.90;;;;;;5037507;28;20576;-77
2020/12/05 11:18:53;;;;;;;9.23;6.67;;;5.40;99.90;;;;;;5039560;28;20211;-74
2020/12/05 11:21:20;;;;;;;9.13;6.83;;;5.40;99.90;;;;;;5037781;28;20204;-77
2020/12/05 11:23:47;;;;;;;9.47;6.40;;;5.40;99.90;;;;;;5037859;28;20286;-75
2020/12/05 11:26:19;;;;;;;9.23;6.90;;;5.40;99.90;;;;;;5037824;28;20238;-76
2020/12/05 11:28:47;;;;;;;12.10;8.07;;;5.40;99.90;;;;;;5038506;28;20235;-77
2020/12/05 11:31:14;;;;;;;11.17;7.30;;;5.40;99.90;;;;;;5038712;28;20736;-79
2020/12/05 11:33:40;;;;;;;11.17;7.43;;;5.40;99.90;;;;;;5039513;28;20867;-77
2020/12/05 11:36:07;;;;;;;9.17;7.20;;;5.50;99.90;;;;;;5037782;28;20210;-77
2020/12/05 11:38:34;;;;;;;12.33;6.87;;;5.50;99.90;;;;;;5038231;28;20200;-77
2020/12/05 11:41:01;;;;;;;9.33;7.33;;;5.60;99.90;;;;;;5038407;28;20645;-77
2020/12/05 11:43:27;;;;;;;8.50;6.53;;;5.60;99.90;;;;;;5038040;28;20207;-77
2020/12/05 11:45:55;;;;;;;9.33;6.63;;;5.60;99.90;;;;;;5037218;28;20218;-79
2020/12/05 11:48:21;;;;;;;8.67;6.27;;;5.70;99.90;;;;;;5039631;28;20294;-76
2020/12/05 11:50:48;;;;;;;8.83;5.90;;;5.70;99.90;;;;;;5036571;28;20208;-74
2020/12/05 11:53:14;;;;;;;7.00;5.40;;;5.80;99.90;;;;;;5038559;28;20302;-78
2020/12/05 11:55:41;;;;;;;9.67;5.23;;;5.80;99.90;;;;;;5046333;28;20200;-78
2020/12/05 11:58:08;;;;;;;5.53;4.97;;;5.90;99.90;;;;;;5051586;28;20200;-78
2020/12/05 12:00:34;;;;;;;7.03;5.03;;;5.90;99.90;;;;;;5038315;28;20204;-78
2020/12/05 12:03:02;;;;;;;7.07;5.50;;;5.90;99.90;;;;;;5036247;28;20649;-79
2020/12/05 12:05:28;;;;;;;6.10;5.43;;;5.90;99.90;;;;;;5037159;28;20200;-80
2020/12/05 12:07:55;;;;;;;5.43;4.87;;;6.00;99.90;;;;;;5037304;28;20234;-73
2020/12/05 12:10:21;;;;;;;4.90;4.40;;;6.00;99.90;;;;;;5036970;28;20191;-74
2020/12/05 12:12:48;;;;;;;6.80;5.07;;;6.00;99.90;;;;;;5038209;28;20224;-74
2020/12/05 12:15:15;;;;;;;8.30;4.93;;;6.10;99.90;;;;;;5038082;28;20227;-75
2020/12/05 12:17:42;;;;;;;5.60;3.97;;;6.20;99.90;;;;;;5036316;28;20208;-76
2020/12/05 12:20:10;;;;;;;7.00;4.27;;;6.30;99.90;;;;;;5037134;28;20581;-75
2020/12/05 12:22:37;;;;;;;4.30;3.70;;;6.30;99.90;;;;;;5037718;28;20661;-75
2020/12/05 12:25:05;;;;;;;7.07;4.00;;;6.40;99.90;;;;;;5037625;28;20211;-76
2020/12/05 12:27:31;;;;;;;4.97;3.90;;;6.50;99.90;;;;;;5037131;28;20199;-76
2020/12/05 12:29:58;;;;;;;3.73;3.10;;;6.70;99.90;;;;;;5036817;28;20199;-75
2020/12/05 12:32:24;;;;;;;3.67;3.30;;;6.80;99.90;;;;;;5039154;28;20231;-74
2020/12/05 12:34:51;;;;;;;6.07;3.20;;;6.90;99.90;;;;;;5036241;28;20605;-74
2020/12/05 12:37:19;;;;;;;4.53;2.93;;;6.80;99.90;;;;;;5038997;28;20200;-72
2020/12/05 12:39:46;;;;;;;3.00;2.70;;;6.80;99.90;;;;;;5041172;28;20233;-72
2020/12/05 12:42:12;;;;;;;3.20;2.87;;;6.80;99.90;;;;;;5036882;28;20298;-73
2020/12/05 12:44:39;;;;;;;3.13;2.77;;;7.00;99.90;;;;;;5038042;28;20191;-74
2020/12/05 12:47:15;;;;;;;4.90;2.60;;;7.10;99.90;;;;;;5036169;28;20206;-75
2020/12/05 12:49:42;;;;;;;3.47;2.30;;;7.30;99.90;;;;;;5037203;28;20286;-74
2020/12/05 12:52:09;;;;;;;3.10;2.30;;;7.20;99.90;;;;;;5037326;28;20243;-74
2020/12/05 12:54:37;;;;;;;3.97;2.17;;;7.20;99.90;;;;;;5037908;28;20208;-75
2020/12/05 12:57:04;;;;;;;3.30;2.37;;;7.30;99.90;;;;;;5036666;28;20203;-73
2020/12/05 12:59:31;;;;;;;2.50;2.30;;;7.50;99.90;;;;;;5037875;28;20226;-74